createdAt,value
2018-02-04T00:00:22.804Z,84.27
2018-02-04T00:01:24.675Z,83.98
2018-02-04T00:02:26.527Z,84.42
2018-02-04T00:03:40.643Z,84.80
2018-02-04T00:04:42.499Z,84.89
2018-02-04T00:05:44.366Z,84.89
2018-02-04T00:06:46.223Z,84.89
2018-02-04T00:07:48.032Z,84.80
2018-02-04T00:08:49.840Z,85.08
2018-02-04T00:09:51.691Z,84.99
2018-02-04T00:10:53.546Z,84.89
2018-02-04T00:11:55.418Z,84.80
2018-02-04T00:13:09.561Z,85.03
2018-02-04T00:14:11.439Z,84.46
2018-02-04T00:15:13.302Z,84.23
2018-02-04T00:16:15.175Z,84.46
2018-02-04T00:17:16.966Z,83.70
2018-02-04T00:18:18.772Z,83.89
2018-02-04T00:19:20.648Z,83.42
2018-02-04T00:20:22.518Z,83.98
2018-02-04T00:21:24.370Z,83.61
2018-02-04T00:22:38.510Z,83.32
2018-02-04T00:23:40.360Z,83.42
2018-02-04T00:24:42.228Z,83.61
2018-02-04T00:25:44.076Z,82.94
2018-02-04T00:26:45.869Z,83.23
2018-02-04T00:27:47.657Z,83.61
2018-02-04T00:28:49.526Z,83.42
2018-02-04T00:29:51.382Z,83.23
2018-02-04T00:30:53.251Z,83.51
2018-02-04T00:32:07.368Z,83.70
2018-02-04T00:33:09.222Z,83.89
2018-02-04T00:34:11.076Z,84.32
2018-02-04T00:35:12.944Z,84.13
2018-02-04T00:36:14.734Z,84.23
2018-02-04T00:37:16.540Z,84.42
2018-02-04T00:38:18.393Z,84.36
2018-02-04T00:39:20.243Z,84.61
2018-02-04T00:40:22.092Z,84.65
2018-02-04T00:41:36.234Z,84.17
2018-02-04T00:42:38.107Z,84.55
2018-02-04T00:43:39.975Z,84.36
2018-02-04T00:44:41.845Z,83.56
2018-02-04T00:45:43.630Z,83.75
2018-02-04T00:46:45.417Z,83.98
2018-02-04T00:47:47.276Z,83.66
2018-02-04T00:48:49.130Z,83.98
2018-02-04T00:49:51.001Z,83.56
2018-02-04T00:51:05.115Z,83.75
2018-02-04T00:52:06.966Z,83.75
2018-02-04T00:53:08.817Z,83.37
2018-02-04T00:54:10.672Z,83.98
2018-02-04T00:55:12.481Z,83.51
2018-02-04T00:56:14.268Z,83.42
2018-02-04T00:57:16.141Z,83.61
2018-02-04T00:58:18.016Z,83.89
2018-02-04T00:59:19.888Z,83.85
2018-02-04T01:00:34.027Z,83.94
2018-02-04T01:01:35.901Z,84.13
2018-02-04T01:02:37.767Z,84.13
2018-02-04T01:03:39.617Z,84.42
2018-02-04T01:04:41.407Z,84.89
2018-02-04T01:05:43.197Z,84.89
2018-02-04T01:06:45.069Z,84.42
2018-02-04T01:07:46.928Z,84.42
2018-02-04T01:08:48.789Z,84.51
2018-02-04T01:10:02.909Z,84.70
2018-02-04T01:11:04.780Z,84.04
2018-02-04T01:12:06.658Z,84.23
2018-02-04T01:13:08.500Z,84.70
2018-02-04T01:14:10.312Z,85.17
2018-02-04T01:15:12.115Z,85.51
2018-02-04T01:16:13.969Z,86.27
2018-02-04T01:17:15.845Z,86.36
2018-02-04T01:18:17.707Z,87.31
2018-02-04T01:19:31.824Z,87.59
2018-02-04T01:20:33.682Z,87.50
2018-02-04T01:21:35.547Z,87.88
2018-02-04T01:22:37.396Z,88.35
2018-02-04T01:23:39.185Z,88.40
2018-02-04T01:24:40.971Z,88.78
2018-02-04T01:25:42.821Z,89.35
2018-02-04T01:26:44.676Z,89.06
2018-02-04T01:27:46.521Z,89.25
2018-02-04T01:29:00.639Z,89.16
2018-02-04T01:30:02.488Z,88.87
2018-02-04T01:31:04.345Z,88.97
2018-02-04T01:32:06.216Z,88.87
2018-02-04T01:33:08.023Z,88.87
2018-02-04T01:34:09.841Z,89.06
2018-02-04T01:35:11.624Z,88.87
2018-02-04T01:36:13.499Z,89.06
2018-02-04T01:37:15.376Z,89.06
2018-02-04T01:38:29.488Z,89.16
2018-02-04T01:39:31.406Z,88.87
2018-02-04T01:40:33.217Z,88.68
2018-02-04T01:41:35.088Z,88.49
2018-02-04T01:42:36.880Z,89.06
2018-02-04T01:43:38.684Z,89.25
2018-02-04T01:44:40.558Z,88.68
2018-02-04T01:45:42.409Z,89.06
2018-02-04T01:46:44.281Z,88.49
2018-02-04T01:47:58.401Z,88.68
2018-02-04T01:49:00.288Z,88.40
2018-02-04T01:50:02.156Z,88.59
2018-02-04T01:51:04.012Z,88.49
2018-02-04T01:52:05.822Z,88.59
2018-02-04T01:53:07.606Z,88.12
2018-02-04T01:54:09.463Z,88.49
2018-02-04T01:55:11.336Z,88.68
2018-02-04T01:56:13.201Z,88.49
2018-02-04T01:57:27.375Z,88.12
2018-02-04T01:58:29.221Z,87.98
2018-02-04T01:59:31.073Z,88.21
2018-02-04T02:00:32.921Z,87.50
2018-02-04T02:01:34.714Z,87.31
2018-02-04T02:02:36.517Z,87.40
2018-02-04T02:03:38.370Z,87.59
2018-02-04T02:04:40.217Z,87.21
2018-02-04T02:05:42.072Z,87.08
2018-02-04T02:06:56.242Z,86.93
2018-02-04T02:07:58.094Z,87.31
2018-02-04T02:08:59.947Z,87.02
2018-02-04T02:10:01.816Z,87.08
2018-02-04T02:11:03.601Z,88.12
2018-02-04T02:12:05.406Z,87.84
2018-02-04T02:13:07.275Z,88.68
2018-02-04T02:14:09.124Z,88.21
2018-02-04T02:15:10.980Z,88.21
2018-02-04T02:16:25.114Z,88.40
2018-02-04T02:17:26.985Z,88.49
2018-02-04T02:18:28.855Z,89.06
2018-02-04T02:19:30.705Z,89.73
2018-02-04T02:20:32.492Z,89.73
2018-02-04T02:21:34.276Z,90.20
2018-02-04T02:22:36.129Z,89.63
2018-02-04T02:23:38.000Z,90.01
2018-02-04T02:24:39.878Z,90.01
2018-02-04T02:25:54.009Z,89.73
2018-02-04T02:26:55.865Z,89.73
2018-02-04T02:27:57.725Z,89.54
2018-02-04T02:28:59.580Z,89.54
2018-02-04T02:30:01.366Z,89.73
2018-02-04T02:31:03.174Z,89.92
2018-02-04T02:32:05.041Z,89.92
2018-02-04T02:33:06.897Z,89.35
2018-02-04T02:34:08.767Z,89.44
2018-02-04T02:35:22.882Z,89.06
2018-02-04T02:36:24.732Z,88.97
2018-02-04T02:37:26.602Z,89.25
2018-02-04T02:38:28.452Z,88.78
2018-02-04T02:39:30.253Z,88.59
2018-02-04T02:40:32.048Z,87.55
2018-02-04T02:41:33.920Z,87.84
2018-02-04T02:42:35.785Z,88.26
2018-02-04T02:43:37.634Z,87.31
2018-02-04T02:44:51.750Z,86.93
2018-02-04T02:45:53.603Z,87.12
2018-02-04T02:46:55.452Z,87.12
2018-02-04T02:47:57.323Z,86.55
2018-02-04T02:48:59.110Z,86.65
2018-02-04T02:50:00.918Z,86.55
2018-02-04T02:51:02.792Z,86.83
2018-02-04T02:52:04.640Z,86.27
2018-02-04T02:53:06.492Z,86.08
2018-02-04T02:54:20.630Z,85.80
2018-02-04T02:55:22.508Z,85.42
2018-02-04T02:56:24.350Z,85.13
2018-02-04T02:57:26.225Z,85.13
2018-02-04T02:58:27.998Z,85.17
2018-02-04T02:59:29.791Z,84.70
2018-02-04T03:00:31.662Z,84.61
2018-02-04T03:01:33.512Z,84.61
2018-02-04T03:02:35.363Z,84.23
2018-02-04T03:03:49.483Z,83.66
2018-02-04T03:04:51.356Z,83.75
2018-02-04T03:05:53.222Z,83.94
2018-02-04T03:06:55.078Z,83.94
2018-02-04T03:07:56.885Z,83.47
2018-02-04T03:08:58.691Z,83.28
2018-02-04T03:10:00.543Z,83.18
2018-02-04T03:11:02.439Z,83.66
2018-02-04T03:12:04.318Z,83.56
2018-02-04T03:13:18.450Z,83.75
2018-02-04T03:14:20.305Z,83.37
2018-02-04T03:15:22.160Z,82.62
2018-02-04T03:16:24.014Z,82.90
2018-02-04T03:17:25.825Z,83.18
2018-02-04T03:18:27.609Z,83.18
2018-02-04T03:19:29.483Z,83.18
2018-02-04T03:20:31.332Z,82.71
2018-02-04T03:21:33.201Z,83.09
2018-02-04T03:22:47.316Z,82.43
2018-02-04T03:23:49.175Z,82.71
2018-02-04T03:24:51.045Z,82.90
2018-02-04T03:25:52.894Z,83.37
2018-02-04T03:26:54.686Z,83.37
2018-02-04T03:27:56.466Z,83.75
2018-02-04T03:28:58.323Z,83.75
2018-02-04T03:30:00.191Z,83.75
2018-02-04T03:31:02.057Z,83.37
2018-02-04T03:32:16.176Z,83.56
2018-02-04T03:33:18.032Z,83.00
2018-02-04T03:34:19.904Z,83.28
2018-02-04T03:35:21.779Z,82.90
2018-02-04T03:36:23.568Z,82.90
2018-02-04T03:37:25.369Z,82.71
2018-02-04T03:38:27.225Z,82.62
2018-02-04T03:39:29.095Z,82.71
2018-02-04T03:40:30.943Z,82.81
2018-02-04T03:41:45.079Z,82.90
2018-02-04T03:42:46.935Z,82.90
2018-02-04T03:43:48.806Z,82.90
2018-02-04T03:44:50.681Z,82.90
2018-02-04T03:45:52.474Z,82.90
2018-02-04T03:46:54.272Z,82.62
2018-02-04T03:47:56.124Z,82.90
2018-02-04T03:48:57.981Z,82.43
2018-02-04T03:49:59.855Z,82.24
2018-02-04T03:51:13.967Z,81.95
2018-02-04T03:52:15.841Z,81.95
2018-02-04T03:53:17.706Z,81.86
2018-02-04T03:54:19.557Z,81.67
2018-02-04T03:55:21.352Z,81.48
2018-02-04T03:56:23.134Z,80.82
2018-02-04T03:57:24.988Z,80.82
2018-02-04T03:58:26.857Z,81.01
2018-02-04T03:59:28.715Z,81.01
2018-02-04T04:00:42.852Z,80.82
2018-02-04T04:01:44.711Z,80.72
2018-02-04T04:02:46.581Z,81.01
2018-02-04T04:03:48.411Z,80.82
2018-02-04T04:04:50.213Z,80.91
2018-02-04T04:05:52.005Z,81.10
2018-02-04T04:06:53.860Z,80.82
2018-02-04T04:07:55.731Z,81.01
2018-02-04T04:08:57.602Z,80.63
2018-02-04T04:10:11.717Z,81.10
2018-02-04T04:11:13.576Z,81.76
2018-02-04T04:12:15.448Z,81.67
2018-02-04T04:13:17.320Z,81.67
2018-02-04T04:14:19.128Z,81.95
2018-02-04T04:15:20.911Z,82.24
2018-02-04T04:16:22.761Z,81.67
2018-02-04T04:17:24.616Z,81.86
2018-02-04T04:18:26.467Z,82.24
2018-02-04T04:19:40.587Z,82.43
2018-02-04T04:20:42.454Z,82.33
2018-02-04T04:21:44.309Z,82.24
2018-02-04T04:22:46.197Z,82.14
2018-02-04T04:23:47.993Z,82.01
2018-02-04T04:24:49.792Z,82.67
2018-02-04T04:25:51.648Z,82.95
2018-02-04T04:26:53.520Z,83.14
2018-02-04T04:27:55.391Z,83.81
2018-02-04T04:29:09.526Z,83.24
2018-02-04T04:30:11.384Z,83.33
2018-02-04T04:31:13.256Z,83.81
2018-02-04T04:32:15.124Z,83.52
2018-02-04T04:33:16.915Z,83.52
2018-02-04T04:34:18.698Z,83.52
2018-02-04T04:35:20.549Z,83.62
2018-02-04T04:36:22.421Z,83.14
2018-02-04T04:37:24.289Z,83.09
2018-02-04T04:38:38.402Z,82.62
2018-02-04T04:39:40.278Z,82.71
2018-02-04T04:40:42.132Z,83.00
2018-02-04T04:41:44.000Z,82.43
2018-02-04T04:42:45.795Z,82.05
2018-02-04T04:43:47.578Z,81.76
2018-02-04T04:44:49.425Z,81.95
2018-02-04T04:45:51.278Z,82.14
2018-02-04T04:46:53.145Z,82.05
2018-02-04T04:48:07.264Z,82.24
2018-02-04T04:49:09.116Z,82.43
2018-02-04T04:50:10.969Z,82.81
2018-02-04T04:51:12.826Z,82.62
2018-02-04T04:52:14.634Z,82.62
2018-02-04T04:53:16.432Z,82.71
2018-02-04T04:54:18.290Z,82.81
2018-02-04T04:55:20.136Z,83.00
2018-02-04T04:56:21.985Z,82.90
2018-02-04T04:57:36.103Z,81.76
2018-02-04T04:58:37.976Z,81.76
2018-02-04T04:59:39.850Z,81.76
2018-02-04T05:00:41.723Z,81.57
2018-02-04T05:01:43.530Z,81.10
2018-02-04T05:02:45.336Z,81.38
2018-02-04T05:03:47.192Z,80.72
2018-02-04T05:04:49.061Z,81.01
2018-02-04T05:05:50.914Z,80.91
2018-02-04T05:07:05.101Z,81.01
2018-02-04T05:08:06.974Z,80.82
2018-02-04T05:09:08.850Z,80.63
2018-02-04T05:10:10.701Z,81.10
2018-02-04T05:11:12.509Z,81.01
2018-02-04T05:12:14.296Z,81.01
2018-02-04T05:13:16.167Z,80.82
2018-02-04T05:14:18.022Z,81.01
2018-02-04T05:15:19.893Z,81.10
2018-02-04T05:16:34.013Z,80.82
2018-02-04T05:17:35.880Z,80.82
2018-02-04T05:18:37.735Z,80.72
2018-02-04T05:19:39.604Z,81.38
2018-02-04T05:20:41.415Z,81.20
2018-02-04T05:21:43.222Z,81.20
2018-02-04T05:22:45.096Z,81.20
2018-02-04T05:23:46.969Z,81.20
2018-02-04T05:24:48.840Z,81.57
2018-02-04T05:26:03.022Z,81.67
2018-02-04T05:27:04.880Z,81.38
2018-02-04T05:28:06.748Z,81.38
2018-02-04T05:29:08.623Z,81.38
2018-02-04T05:30:10.433Z,81.48
2018-02-04T05:31:12.223Z,81.38
2018-02-04T05:32:14.091Z,81.57
2018-02-04T05:33:15.966Z,81.48
2018-02-04T05:34:17.833Z,81.20
2018-02-04T05:35:31.957Z,81.01
2018-02-04T05:36:33.830Z,81.01
2018-02-04T05:37:35.700Z,80.82
2018-02-04T05:38:37.555Z,80.53
2018-02-04T05:39:39.358Z,80.72
2018-02-04T05:40:41.147Z,80.82
2018-02-04T05:41:43.002Z,81.01
2018-02-04T05:42:44.851Z,80.63
2018-02-04T05:43:46.666Z,81.01
2018-02-04T05:45:00.786Z,81.01
2018-02-04T05:46:02.656Z,81.20
2018-02-04T05:47:04.529Z,81.01
2018-02-04T05:48:06.400Z,80.82
2018-02-04T05:49:08.206Z,80.82
2018-02-04T05:50:10.012Z,81.01
2018-02-04T05:51:11.861Z,80.91
2018-02-04T05:52:13.714Z,80.82
2018-02-04T05:53:15.572Z,81.38
2018-02-04T05:54:29.710Z,81.29
2018-02-04T05:55:31.581Z,81.01
2018-02-04T05:56:33.434Z,80.82
2018-02-04T05:57:35.287Z,81.20
2018-02-04T05:58:37.095Z,80.67
2018-02-04T05:59:38.882Z,80.82
2018-02-04T06:00:40.753Z,80.57
2018-02-04T06:01:42.608Z,80.63
2018-02-04T06:02:44.477Z,80.34
2018-02-04T06:03:58.590Z,80.57
2018-02-04T06:05:00.451Z,80.67
2018-02-04T06:06:02.324Z,80.38
2018-02-04T06:07:04.193Z,80.38
2018-02-04T06:08:05.984Z,80.34
2018-02-04T06:09:07.797Z,80.38
2018-02-04T06:10:09.657Z,80.34
2018-02-04T06:11:11.510Z,80.38
2018-02-04T06:12:13.381Z,80.15
2018-02-04T06:13:27.502Z,80.63
2018-02-04T06:14:29.356Z,80.48
2018-02-04T06:15:31.232Z,80.63
2018-02-04T06:16:33.109Z,79.96
2018-02-04T06:17:34.921Z,80.06
2018-02-04T06:18:36.723Z,80.15
2018-02-04T06:19:38.585Z,80.06
2018-02-04T06:20:40.428Z,80.38
2018-02-04T06:21:42.286Z,80.44
2018-02-04T06:22:56.426Z,80.72
2018-02-04T06:23:58.298Z,81.01
2018-02-04T06:25:00.169Z,80.72
2018-02-04T06:26:02.046Z,81.01
2018-02-04T06:27:03.855Z,80.72
2018-02-04T06:28:05.664Z,80.91
2018-02-04T06:29:07.536Z,81.01
2018-02-04T06:30:09.408Z,80.82
2018-02-04T06:31:11.262Z,81.20
2018-02-04T06:32:25.435Z,81.29
2018-02-04T06:33:27.304Z,81.48
2018-02-04T06:34:29.162Z,81.33
2018-02-04T06:35:31.038Z,81.29
2018-02-04T06:36:32.850Z,81.24
2018-02-04T06:37:34.643Z,81.14
2018-02-04T06:38:36.516Z,81.24
2018-02-04T06:39:38.373Z,81.14
2018-02-04T06:40:40.228Z,81.43
2018-02-04T06:41:54.418Z,81.52
2018-02-04T06:42:56.286Z,82.28
2018-02-04T06:43:58.140Z,81.86
2018-02-04T06:44:59.995Z,82.24
2018-02-04T06:46:01.792Z,82.62
2018-02-04T06:47:03.601Z,83.94
2018-02-04T06:48:05.459Z,83.28
2018-02-04T06:49:07.328Z,83.94
2018-02-04T06:50:09.186Z,84.61
2018-02-04T06:51:23.327Z,84.89
2018-02-04T06:52:25.206Z,84.94
2018-02-04T06:53:27.083Z,85.42
2018-02-04T06:54:28.958Z,85.51
2018-02-04T06:55:30.770Z,85.51
2018-02-04T06:56:32.579Z,85.99
2018-02-04T06:57:34.430Z,86.08
2018-02-04T06:58:36.289Z,85.80
2018-02-04T06:59:38.159Z,85.89
2018-02-04T07:00:52.327Z,86.18
2018-02-04T07:01:54.183Z,86.46
2018-02-04T07:02:56.038Z,85.80
2018-02-04T07:03:57.911Z,85.51
2018-02-04T07:04:59.725Z,85.13
2018-02-04T07:06:01.515Z,85.04
2018-02-04T07:07:03.392Z,85.42
2018-02-04T07:08:05.264Z,85.32
2018-02-04T07:09:07.121Z,85.04
2018-02-04T07:10:21.308Z,85.04
2018-02-04T07:11:23.166Z,85.13
2018-02-04T07:12:25.042Z,84.47
2018-02-04T07:13:26.899Z,84.94
2018-02-04T07:14:28.695Z,84.94
2018-02-04T07:15:30.501Z,84.28
2018-02-04T07:16:32.359Z,84.37
2018-02-04T07:17:34.232Z,84.28
2018-02-04T07:18:36.107Z,84.42
2018-02-04T07:19:50.277Z,84.51
2018-02-04T07:20:52.130Z,84.13
2018-02-04T07:21:53.986Z,83.75
2018-02-04T07:22:55.861Z,83.56
2018-02-04T07:23:57.672Z,83.56
2018-02-04T07:24:59.460Z,83.28
2018-02-04T07:26:01.316Z,83.28
2018-02-04T07:27:03.176Z,82.90
2018-02-04T07:28:05.051Z,82.81
2018-02-04T07:29:19.191Z,82.43
2018-02-04T07:30:21.046Z,82.43
2018-02-04T07:31:22.910Z,81.86
2018-02-04T07:32:24.761Z,81.81
2018-02-04T07:33:26.579Z,81.95
2018-02-04T07:34:28.406Z,81.95
2018-02-04T07:35:30.232Z,81.71
2018-02-04T07:36:32.092Z,81.90
2018-02-04T07:37:33.983Z,81.95
2018-02-04T07:38:48.120Z,81.62
2018-02-04T07:39:49.997Z,81.52
2018-02-04T07:40:51.872Z,81.43
2018-02-04T07:41:53.725Z,81.24
2018-02-04T07:42:55.515Z,81.05
2018-02-04T07:43:57.302Z,80.95
2018-02-04T07:44:59.166Z,80.86
2018-02-04T07:46:01.037Z,81.01
2018-02-04T07:47:02.917Z,81.20
2018-02-04T07:48:17.111Z,81.38
2018-02-04T07:49:18.987Z,82.14
2018-02-04T07:50:20.869Z,81.86
2018-02-04T07:51:22.720Z,82.05
2018-02-04T07:52:24.548Z,81.86
2018-02-04T07:53:26.323Z,82.05
2018-02-04T07:54:28.198Z,82.14
2018-02-04T07:55:30.072Z,81.95
2018-02-04T07:56:31.932Z,82.05
2018-02-04T07:57:46.080Z,81.76
2018-02-04T07:58:47.942Z,82.05
2018-02-04T07:59:49.816Z,82.33
2018-02-04T08:00:51.676Z,82.24
2018-02-04T08:01:53.489Z,81.86
2018-02-04T08:02:55.298Z,81.86
2018-02-04T08:03:57.159Z,81.95
2018-02-04T08:04:59.015Z,81.95
2018-02-04T08:06:00.894Z,82.05
2018-02-04T08:07:15.037Z,82.90
2018-02-04T08:08:16.902Z,83.00
2018-02-04T08:09:18.769Z,83.09
2018-02-04T08:10:20.659Z,82.90
2018-02-04T08:11:22.493Z,83.09
2018-02-04T08:12:24.297Z,83.66
2018-02-04T08:13:26.173Z,83.66
2018-02-04T08:14:28.051Z,83.56
2018-02-04T08:15:29.930Z,83.00
2018-02-04T08:16:44.077Z,83.56
2018-02-04T08:17:45.976Z,83.37
2018-02-04T08:18:47.852Z,83.47
2018-02-04T08:19:49.747Z,83.66
2018-02-04T08:20:51.542Z,83.18
2018-02-04T08:21:53.334Z,84.13
2018-02-04T08:22:55.217Z,84.04
2018-02-04T08:23:57.091Z,83.94
2018-02-04T08:24:58.971Z,84.23
2018-02-04T08:26:13.116Z,84.42
2018-02-04T08:27:14.997Z,84.04
2018-02-04T08:28:16.877Z,84.42
2018-02-04T08:29:18.751Z,84.04
2018-02-04T08:30:20.550Z,83.94
2018-02-04T08:31:22.357Z,84.23
2018-02-04T08:32:24.215Z,85.17
2018-02-04T08:33:26.096Z,84.61
2018-02-04T08:34:27.971Z,84.42
2018-02-04T08:35:42.114Z,83.89
2018-02-04T08:36:44.026Z,83.32
2018-02-04T08:37:45.910Z,83.80
2018-02-04T08:38:47.775Z,82.66
2018-02-04T08:39:49.586Z,82.37
2018-02-04T08:40:51.377Z,81.71
2018-02-04T08:41:53.296Z,81.43
2018-02-04T08:42:55.114Z,80.57
2018-02-04T08:43:56.976Z,79.82
2018-02-04T08:45:11.167Z,79.38
2018-02-04T08:46:13.052Z,79.19
2018-02-04T08:47:15.031Z,78.62
2018-02-04T08:48:16.864Z,78.24
2018-02-04T08:49:18.655Z,78.62
2018-02-04T08:50:20.463Z,78.43
2018-02-04T08:51:22.323Z,77.96
2018-02-04T08:52:24.179Z,77.86
2018-02-04T08:53:26.043Z,78.05
2018-02-04T08:54:40.235Z,77.83
2018-02-04T08:55:42.118Z,77.92
2018-02-04T08:56:43.972Z,77.83
2018-02-04T08:57:45.831Z,78.39
2018-02-04T08:58:47.630Z,78.20
2018-02-04T08:59:49.446Z,78.62
2018-02-04T09:00:51.325Z,78.34
2018-02-04T09:01:53.203Z,78.05
2018-02-04T09:02:55.084Z,77.29
2018-02-04T09:04:09.202Z,77.39
2018-02-04T09:05:11.067Z,77.39
2018-02-04T09:06:12.946Z,76.63
2018-02-04T09:07:14.824Z,76.29
2018-02-04T09:08:16.638Z,75.91
2018-02-04T09:09:18.454Z,74.68
2018-02-04T09:10:20.308Z,74.49
2018-02-04T09:11:22.164Z,74.58
2018-02-04T09:12:24.023Z,74.39
2018-02-04T09:13:38.193Z,73.82
2018-02-04T09:14:40.076Z,73.92
2018-02-04T09:15:41.955Z,74.01
2018-02-04T09:16:43.829Z,73.92
2018-02-04T09:17:45.625Z,74.11
2018-02-04T09:18:47.416Z,74.39
2018-02-04T09:19:49.295Z,74.77
2018-02-04T09:20:51.147Z,74.58
2018-02-04T09:21:53.011Z,74.30
2018-02-04T09:23:07.135Z,74.01
2018-02-04T09:24:09.016Z,73.54
2018-02-04T09:25:10.875Z,73.29
2018-02-04T09:26:12.754Z,73.19
2018-02-04T09:27:14.570Z,72.63
2018-02-04T09:28:16.360Z,72.44
2018-02-04T09:29:18.218Z,71.67
2018-02-04T09:30:20.092Z,71.48
2018-02-04T09:31:21.949Z,71.04
2018-02-04T09:32:36.076Z,71.33
2018-02-04T09:33:37.936Z,70.48
2018-02-04T09:34:39.795Z,70.29
2018-02-04T09:35:41.675Z,69.81
2018-02-04T09:36:43.476Z,69.71
2018-02-04T09:37:45.342Z,69.34
2018-02-04T09:38:47.224Z,68.96
2018-02-04T09:39:49.079Z,69.05
2018-02-04T09:40:50.937Z,69.05
2018-02-04T09:42:05.065Z,68.67
2018-02-04T09:43:06.940Z,68.58
2018-02-04T09:44:08.798Z,68.67
2018-02-04T09:45:10.655Z,68.39
2018-02-04T09:46:12.455Z,68.48
2018-02-04T09:47:14.256Z,68.29
2018-02-04T09:48:16.135Z,67.91
2018-02-04T09:49:18.010Z,67.44
2018-02-04T09:50:19.872Z,67.44
2018-02-04T09:51:34.001Z,67.34
2018-02-04T09:52:35.877Z,67.44
2018-02-04T09:53:37.759Z,67.47
2018-02-04T09:54:39.638Z,67.19
2018-02-04T09:55:41.458Z,67.19
2018-02-04T09:56:43.270Z,66.90
2018-02-04T09:57:45.130Z,66.87
2018-02-04T09:58:47.037Z,66.58
2018-02-04T09:59:48.851Z,66.39
2018-02-04T10:01:02.991Z,66.39
2018-02-04T10:02:04.851Z,66.39
2018-02-04T10:03:06.714Z,66.67
2018-02-04T10:04:08.590Z,66.96
2018-02-04T10:05:10.388Z,66.77
2018-02-04T10:06:12.179Z,67.06
2018-02-04T10:07:14.042Z,66.96
2018-02-04T10:08:15.921Z,67.15
2018-02-04T10:09:17.800Z,67.82
2018-02-04T10:10:31.928Z,68.67
2018-02-04T10:11:33.785Z,69.11
2018-02-04T10:12:35.644Z,68.92
2018-02-04T10:13:37.508Z,69.40
2018-02-04T10:14:39.316Z,69.34
2018-02-04T10:15:41.113Z,68.86
2018-02-04T10:16:42.986Z,69.24
2018-02-04T10:17:44.853Z,68.86
2018-02-04T10:18:46.725Z,68.67
2018-02-04T10:20:00.854Z,68.29
2018-02-04T10:21:02.719Z,68.48
2018-02-04T10:22:04.593Z,68.29
2018-02-04T10:23:06.452Z,68.01
2018-02-04T10:24:08.248Z,67.34
2018-02-04T10:25:10.043Z,66.87
2018-02-04T10:26:11.898Z,67.34
2018-02-04T10:27:13.762Z,67.53
2018-02-04T10:28:15.622Z,67.15
2018-02-04T10:29:29.750Z,67.06
2018-02-04T10:30:31.608Z,66.77
2018-02-04T10:31:33.472Z,66.27
2018-02-04T10:32:35.350Z,66.36
2018-02-04T10:33:37.124Z,66.46
2018-02-04T10:34:38.921Z,66.46
2018-02-04T10:35:40.799Z,67.12
2018-02-04T10:36:42.662Z,67.59
2018-02-04T10:37:44.553Z,68.16
2018-02-04T10:38:58.694Z,68.26
2018-02-04T10:40:00.556Z,68.64
2018-02-04T10:41:02.428Z,69.21
2018-02-04T10:42:04.289Z,68.79
2018-02-04T10:43:06.109Z,69.74
2018-02-04T10:44:07.920Z,70.31
2018-02-04T10:45:09.804Z,71.07
2018-02-04T10:46:11.673Z,70.78
2018-02-04T10:47:13.537Z,71.45
2018-02-04T10:48:27.655Z,71.26
2018-02-04T10:49:29.522Z,71.45
2018-02-04T10:50:31.374Z,71.55
2018-02-04T10:51:33.237Z,71.55
2018-02-04T10:52:35.026Z,72.02
2018-02-04T10:53:36.826Z,72.21
2018-02-04T10:54:38.703Z,72.59
2018-02-04T10:55:40.637Z,72.49
2018-02-04T10:56:42.455Z,72.34
2018-02-04T10:57:56.597Z,71.77
2018-02-04T10:58:58.464Z,71.86
2018-02-04T11:00:00.340Z,71.77
2018-02-04T11:01:02.200Z,71.86
2018-02-04T11:02:04.025Z,71.39
2018-02-04T11:03:05.810Z,71.30
2018-02-04T11:04:07.668Z,71.30
2018-02-04T11:05:09.546Z,71.30
2018-02-04T11:06:11.456Z,71.14
2018-02-04T11:07:25.555Z,70.63
2018-02-04T11:08:27.430Z,70.35
2018-02-04T11:09:29.315Z,70.63
2018-02-04T11:10:31.187Z,71.11
2018-02-04T11:11:33.018Z,70.82
2018-02-04T11:12:34.772Z,70.44
2018-02-04T11:13:36.657Z,70.06
2018-02-04T11:14:38.531Z,69.96
2018-02-04T11:15:40.413Z,70.25
2018-02-04T11:16:54.559Z,70.19
2018-02-04T11:17:56.421Z,69.62
2018-02-04T11:18:58.279Z,69.34
2018-02-04T11:20:00.137Z,69.71
2018-02-04T11:21:01.933Z,69.62
2018-02-04T11:22:03.742Z,69.53
2018-02-04T11:23:06.142Z,69.53
2018-02-04T11:24:08.951Z,68.96
2018-02-04T11:24:53.674Z,68.96
2018-02-04T11:25:38.388Z,68.96
2018-02-04T11:26:23.110Z,68.96
2018-02-04T11:27:07.819Z,68.39
2018-02-04T11:27:52.519Z,67.44
2018-02-04T11:28:37.229Z,66.55
2018-02-04T11:29:21.984Z,65.41
2018-02-04T11:30:06.691Z,64.94
2018-02-04T11:30:51.384Z,63.98
2018-02-04T11:31:36.105Z,63.20
2018-02-04T11:32:20.808Z,63.29
2018-02-04T11:33:05.511Z,63.57
2018-02-04T11:33:50.216Z,63.95
2018-02-04T11:34:34.926Z,64.71
2018-02-04T11:35:19.655Z,64.52
2018-02-04T11:36:04.358Z,65.25
2018-02-04T11:36:49.067Z,65.75
2018-02-04T11:37:33.785Z,66.01
2018-02-04T11:38:18.490Z,67.14
2018-02-04T11:39:03.193Z,68.29
2018-02-04T11:39:47.905Z,68.85
2018-02-04T11:40:32.674Z,69.42
2018-02-04T11:41:17.385Z,69.80
2018-02-04T11:42:02.160Z,70.28
2018-02-04T11:42:46.890Z,70.37
2018-02-04T11:43:31.614Z,70.28
2018-02-04T11:44:16.317Z,70.37
2018-02-04T11:45:01.025Z,70.18
2018-02-04T11:45:45.736Z,70.28
2018-02-04T11:46:30.442Z,69.36
2018-02-04T11:47:15.145Z,68.89
2018-02-04T11:47:59.852Z,68.70
2018-02-04T11:48:44.577Z,68.32
2018-02-04T11:49:29.284Z,68.51
2018-02-04T11:50:13.989Z,68.51
2018-02-04T11:50:58.770Z,68.60
2018-02-04T11:51:43.467Z,68.76
2018-02-04T11:52:28.175Z,68.85
2018-02-04T11:53:12.891Z,69.33
2018-02-04T11:53:57.615Z,69.33
2018-02-04T11:54:42.322Z,69.33
2018-02-04T11:55:27.026Z,69.33
2018-02-04T11:56:11.734Z,69.80
2018-02-04T11:56:56.461Z,70.09
2018-02-04T11:57:41.162Z,69.71
2018-02-04T11:58:25.870Z,68.66
2018-02-04T11:59:10.596Z,68.00
2018-02-04T11:59:55.367Z,68.00
2018-02-04T12:00:40.005Z,67.90
2018-02-04T12:01:24.725Z,67.62
2018-02-04T12:02:09.445Z,67.43
2018-02-04T12:02:54.150Z,67.24
2018-02-04T12:03:38.852Z,68.00
2018-02-04T12:04:23.596Z,68.00
2018-02-04T12:05:08.298Z,68.19
2018-02-04T12:05:53.002Z,68.38
2018-02-04T12:06:37.732Z,68.48
2018-02-04T12:07:22.435Z,68.57
2018-02-04T12:08:07.141Z,68.38
2018-02-04T12:08:51.923Z,68.48
2018-02-04T12:09:36.649Z,68.48
2018-02-04T12:10:21.353Z,68.29
2018-02-04T12:11:06.062Z,68.48
2018-02-04T12:11:50.791Z,68.13
2018-02-04T12:12:35.496Z,68.13
2018-02-04T12:13:20.228Z,67.37
2018-02-04T12:14:04.928Z,67.37
2018-02-04T12:14:49.639Z,67.08
2018-02-04T12:15:34.419Z,66.80
2018-02-04T12:16:19.118Z,66.83
2018-02-04T12:17:03.826Z,66.23
2018-02-04T12:17:48.532Z,65.69
2018-02-04T12:18:33.305Z,66.08
2018-02-04T12:19:18.033Z,65.79
2018-02-04T12:20:02.762Z,65.69
2018-02-04T12:20:47.489Z,66.08
2018-02-04T12:21:32.193Z,64.90
2018-02-04T12:22:16.900Z,64.43
2018-02-04T12:23:01.628Z,63.39
2018-02-04T12:23:46.336Z,62.53
2018-02-04T12:24:31.040Z,62.24
2018-02-04T12:25:15.746Z,62.72
2018-02-04T12:26:00.453Z,63.10
2018-02-04T12:26:45.178Z,62.82
2018-02-04T12:27:29.886Z,63.20
2018-02-04T12:28:14.591Z,63.26
2018-02-04T12:28:59.323Z,63.64
2018-02-04T12:29:44.105Z,64.97
2018-02-04T12:30:28.820Z,64.87
2018-02-04T12:31:13.530Z,64.59
2018-02-04T12:31:58.283Z,64.20
2018-02-04T12:32:42.984Z,64.01
2018-02-04T12:33:27.694Z,64.11
2018-02-04T12:34:12.405Z,64.01
2018-02-04T12:34:57.129Z,64.20
2018-02-04T12:35:41.832Z,64.40
2018-02-04T12:36:26.550Z,64.68
2018-02-04T12:37:11.244Z,64.49
2018-02-04T12:37:55.955Z,64.24
2018-02-04T12:38:40.680Z,63.95
2018-02-04T12:39:25.412Z,63.29
2018-02-04T12:40:10.117Z,63.20
2018-02-04T12:40:54.840Z,63.48
2018-02-04T12:41:39.561Z,63.26
2018-02-04T12:42:24.310Z,63.26
2018-02-04T12:43:09.040Z,63.20
2018-02-04T12:43:53.741Z,63.48
2018-02-04T12:44:38.456Z,63.01
2018-02-04T12:45:23.249Z,63.10
2018-02-04T12:46:07.957Z,62.91
2018-02-04T12:46:52.659Z,62.56
2018-02-04T12:47:37.467Z,62.66
2018-02-04T12:48:22.160Z,62.08
2018-02-04T12:49:06.888Z,62.66
2018-02-04T12:49:51.613Z,62.08
2018-02-04T12:50:36.388Z,62.56
2018-02-04T12:51:21.093Z,61.99
2018-02-04T12:52:05.798Z,61.77
2018-02-04T12:52:50.528Z,61.87
2018-02-04T12:53:35.255Z,62.24
2018-02-04T12:54:19.981Z,61.77
2018-02-04T12:55:04.682Z,62.24
2018-02-04T12:55:49.390Z,62.24